Time;durP1;ratioP1;P1;durP2;ratioP2;P2;SDS_P1;SDS_P2;PMS_P1;PMS_P2;Temp;Humidity;BMP_temperature;BMP_pressure;BME280_temperature;BME280_humidity;BME280_pressure;Samples;Min_cycle;Max_cycle;Signal;HPM_P1;HPM_P2
2022/11/10 00:00:00;;;;;;;17.90;11.98;;;10.30;78.60;;;;;;5060141;28;20021;-56
2022/11/10 00:02:26;;;;;;;17.75;11.30;;;10.30;78.70;;;;;;5055246;28;20045;-55
2022/11/10 00:04:52;;;;;;;18.95;11.90;;;10.30;78.70;;;;;;5061612;28;20032;-56
2022/11/10 00:07:17;;;;;;;19.05;12.15;;;10.20;78.60;;;;;;5064202;28;20767;-56
2022/11/10 00:09:43;;;;;;;20.23;12.35;;;10.20;78.60;;;;;;5061188;28;20025;-57
2022/11/10 00:12:08;;;;;;;19.15;12.27;;;10.20;78.60;;;;;;5055395;28;20046;-56
2022/11/10 00:17:25;;;;;;;;;;;10.10;78.70;;;;;;5037843;28;20028;-56
2022/11/10 00:19:51;;;;;;;15.98;11.13;;;10.10;78.70;;;;;;5057568;28;19915;-57
2022/11/10 00:22:17;;;;;;;20.13;12.32;;;10.10;78.80;;;;;;5056858;28;20037;-57
2022/11/10 00:24:43;;;;;;;16.85;11.18;;;10.10;78.90;;;;;;5055489;28;20066;-56
2022/11/10 00:27:09;;;;;;;17.52;11.43;;;10.00;78.90;;;;;;5054819;28;20066;-56
2022/11/10 00:29:35;;;;;;;16.08;11.50;;;10.00;78.90;;;;;;5055580;28;20025;-57
2022/11/10 00:32:00;;;;;;;17.33;11.15;;;10.00;79.00;;;;;;5062003;28;20469;-57
2022/11/10 00:34:26;;;;;;;16.80;11.73;;;10.00;78.90;;;;;;5065986;28;20060;-55
2022/11/10 00:36:52;;;;;;;18.92;13.13;;;10.00;78.90;;;;;;5055865;28;20025;-56
2022/11/10 00:39:17;;;;;;;16.70;11.38;;;9.90;78.90;;;;;;5056846;28;20033;-57
2022/11/10 00:41:43;;;;;;;20.08;11.55;;;9.90;79.00;;;;;;5066661;28;20039;-57
2022/11/10 00:44:09;;;;;;;17.67;10.90;;;9.90;78.90;;;;;;5060335;28;20044;-57
2022/11/10 00:46:34;;;;;;;17.73;11.20;;;9.90;78.90;;;;;;5053657;28;20056;-57
2022/11/10 00:49:00;;;;;;;17.17;11.25;;;9.90;78.90;;;;;;5059196;28;20104;-55
2022/11/10 00:51:28;;;;;;;17.80;11.45;;;9.90;79.00;;;;;;5059711;28;20033;-56
2022/11/10 00:53:54;;;;;;;16.02;11.88;;;9.90;78.90;;;;;;5056802;28;20031;-55
2022/11/10 00:56:21;;;;;;;17.50;11.18;;;9.80;78.90;;;;;;5056231;28;20037;-57
2022/11/10 00:58:47;;;;;;;17.55;11.15;;;9.80;78.90;;;;;;5052825;28;20447;-56
2022/11/10 01:01:13;;;;;;;18.20;12.73;;;9.80;79.00;;;;;;5062169;28;20102;-56
2022/11/10 01:03:39;;;;;;;15.95;10.65;;;9.80;78.90;;;;;;5060285;28;20021;-56
2022/11/10 01:06:06;;;;;;;21.00;12.65;;;9.80;79.00;;;;;;5056907;28;20124;-56
2022/11/10 01:08:32;;;;;;;19.50;11.55;;;9.70;79.10;;;;;;5052080;28;20029;-56
2022/11/10 01:11:24;;;;;;;23.75;14.27;;;9.70;79.10;;;;;;5055490;28;20116;-55
2022/11/10 01:13:51;;;;;;;23.38;13.57;;;9.70;79.00;;;;;;5059730;28;20037;-56
2022/11/10 01:16:21;;;;;;;22.45;14.35;;;9.70;79.00;;;;;;5058506;28;20029;-57
2022/11/10 01:18:55;;;;;;;22.63;12.88;;;9.70;79.10;;;;;;5054344;28;20025;-56
2022/11/10 01:21:21;;;;;;;26.20;14.30;;;9.70;79.20;;;;;;5058898;28;20031;-56
2022/11/10 01:23:47;;;;;;;23.38;13.63;;;9.60;79.00;;;;;;5058451;28;20036;-57
2022/11/10 01:26:14;;;;;;;22.95;12.95;;;9.60;79.80;;;;;;5055253;28;20025;-56
2022/11/10 01:28:40;;;;;;;25.85;13.52;;;9.60;79.20;;;;;;5058041;28;20035;-56
2022/11/10 01:31:15;;;;;;;29.25;14.63;;;9.60;79.00;;;;;;5062711;28;20078;-55
2022/11/10 01:33:41;;;;;;;25.23;14.38;;;9.60;79.00;;;;;;5057508;28;20243;-56
2022/11/10 01:36:08;;;;;;;25.10;15.00;;;9.60;79.00;;;;;;5055972;28;20032;-56
2022/11/10 01:38:36;;;;;;;23.42;13.48;;;9.60;79.10;;;;;;5060982;28;20028;-56
2022/11/10 01:41:05;;;;;;;25.35;14.43;;;9.60;79.10;;;;;;5065991;28;20077;-55
2022/11/10 01:43:31;;;;;;;20.48;12.20;;;9.60;79.10;;;;;;5065780;28;20085;-56
2022/11/10 01:46:07;;;;;;;19.48;12.40;;;9.50;79.00;;;;;;5064757;28;20020;-55
2022/11/10 01:48:36;;;;;;;18.35;11.57;;;9.50;79.00;;;;;;5052697;28;20017;-55
2022/11/10 01:51:14;;;;;;;18.60;11.77;;;9.50;79.10;;;;;;5045455;28;20025;-56
2022/11/10 01:53:43;;;;;;;21.88;12.85;;;9.50;79.00;;;;;;5049116;28;20097;-56
2022/11/10 01:56:10;;;;;;;21.73;12.18;;;9.50;79.00;;;;;;5048039;28;20037;-56
2022/11/10 01:58:41;;;;;;;17.77;10.52;;;9.40;79.00;;;;;;5052780;28;20459;-56
2022/11/10 02:01:07;;;;;;;17.73;10.10;;;9.40;79.00;;;;;;5043889;28;20053;-57
2022/11/10 02:03:54;;;;;;;16.42;10.00;;;9.40;79.10;;;;;;5052539;28;20036;-55
2022/11/10 02:06:24;;;;;;;18.05;10.90;;;9.40;79.00;;;;;;5050495;28;20470;-55
2022/11/10 02:08:51;;;;;;;18.80;11.25;;;9.40;79.00;;;;;;5055250;28;20029;-56
2022/11/10 02:11:17;;;;;;;17.00;10.77;;;9.40;79.00;;;;;;5051830;28;20480;-55
2022/11/10 02:13:42;;;;;;;16.83;11.18;;;9.40;78.90;;;;;;5054142;28;20063;-56
2022/11/10 02:16:09;;;;;;;15.20;10.57;;;9.40;78.90;;;;;;5049564;28;20483;-55
2022/11/10 02:18:36;;;;;;;14.75;9.82;;;9.40;78.90;;;;;;5055757;28;20035;-57
2022/11/10 02:21:06;;;;;;;18.83;10.80;;;9.30;78.80;;;;;;5056941;28;20028;-55
2022/11/10 02:23:35;;;;;;;20.70;10.75;;;9.30;78.80;;;;;;5052999;28;20032;-56
2022/11/10 02:26:05;;;;;;;20.17;11.82;;;9.30;78.90;;;;;;5055551;28;20463;-56
2022/11/10 02:28:36;;;;;;;19.58;11.60;;;9.30;78.80;;;;;;5060984;28;20017;-56
2022/11/10 02:31:04;;;;;;;18.92;11.43;;;9.20;78.80;;;;;;5062314;28;20033;-56
2022/11/10 02:33:29;;;;;;;16.48;11.15;;;9.20;78.80;;;;;;5056815;28;20036;-55
2022/11/10 02:35:55;;;;;;;19.90;11.68;;;9.20;78.80;;;;;;5050127;28;20361;-56
2022/11/10 02:38:21;;;;;;;16.33;11.20;;;9.10;78.80;;;;;;5057576;28;20029;-56
2022/11/10 02:40:50;;;;;;;16.95;10.75;;;9.10;78.90;;;;;;5059417;28;20032;-57
2022/11/10 02:43:18;;;;;;;18.08;10.90;;;9.10;78.90;;;;;;5043432;28;20095;-55
2022/11/10 02:45:44;;;;;;;17.70;10.85;;;9.10;78.90;;;;;;5047730;28;20441;-56
2022/11/10 02:48:12;;;;;;;16.58;9.43;;;9.00;79.00;;;;;;5053709;28;20078;-56
2022/11/10 02:50:38;;;;;;;13.50;9.13;;;9.00;79.00;;;;;;5057702;28;20017;-55
2022/11/10 02:53:03;;;;;;;13.73;9.93;;;9.00;79.10;;;;;;5060083;28;20020;-56
2022/11/10 02:55:29;;;;;;;14.30;10.07;;;8.90;79.10;;;;;;5059876;28;20488;-56
2022/11/10 02:57:55;;;;;;;15.65;9.73;;;9.00;79.10;;;;;;5052621;28;20089;-57
2022/11/10 03:00:20;;;;;;;14.60;9.90;;;8.90;79.20;;;;;;5055181;28;20027;-56
2022/11/10 03:02:46;;;;;;;13.25;9.13;;;8.90;79.20;;;;;;5063945;28;20031;-57
2022/11/10 03:05:12;;;;;;;13.07;8.77;;;8.90;79.30;;;;;;5058193;28;20021;-56
2022/11/10 03:07:37;;;;;;;13.30;8.93;;;8.90;79.40;;;;;;5060595;28;20609;-55
2022/11/10 03:10:05;;;;;;;15.23;9.90;;;8.90;79.50;;;;;;5057359;28;20024;-57
2022/11/10 03:12:31;;;;;;;13.15;8.93;;;8.90;79.40;;;;;;5065470;28;20442;-56
2022/11/10 03:14:56;;;;;;;13.90;9.05;;;8.90;79.50;;;;;;5058601;28;20025;-56
2022/11/10 03:17:22;;;;;;;16.63;9.52;;;8.90;79.50;;;;;;5052359;28;20036;-56
2022/11/10 03:19:48;;;;;;;13.88;10.27;;;8.90;79.50;;;;;;5063576;28;20429;-55
2022/11/10 03:22:14;;;;;;;14.52;9.88;;;8.90;79.40;;;;;;5057059;28;20040;-56
2022/11/10 03:24:40;;;;;;;14.10;10.23;;;8.90;79.50;;;;;;5056346;28;20021;-56
2022/11/10 03:27:06;;;;;;;20.98;12.88;;;8.90;79.50;;;;;;5051704;28;20435;-55
2022/11/10 03:29:31;;;;;;;23.15;13.30;;;8.90;79.50;;;;;;5062467;28;20032;-56
2022/11/10 03:31:57;;;;;;;27.02;14.93;;;8.90;79.40;;;;;;5060494;28;20029;-56
2022/11/10 03:34:23;;;;;;;27.10;14.75;;;8.90;79.60;;;;;;5061987;28;20039;-56
2022/11/10 03:36:49;;;;;;;28.63;16.30;;;8.90;79.50;;;;;;5052307;28;20058;-57
2022/11/10 03:39:15;;;;;;;34.75;17.17;;;8.90;79.60;;;;;;5058650;28;20037;-56
2022/11/10 03:41:40;;;;;;;30.45;16.40;;;8.90;79.40;;;;;;5061794;28;20032;-56
2022/11/10 03:44:06;;;;;;;33.67;19.83;;;8.90;79.50;;;;;;5046436;28;20111;-56
2022/11/10 03:46:31;;;;;;;31.40;16.73;;;9.00;79.50;;;;;;5055286;28;20072;-57
2022/11/10 03:48:57;;;;;;;29.58;17.65;;;9.00;79.50;;;;;;5065684;28;20054;-57
2022/11/10 03:51:23;;;;;;;33.67;18.80;;;9.00;79.40;;;;;;5052318;28;20037;-56
2022/11/10 03:53:48;;;;;;;34.08;17.40;;;8.90;79.40;;;;;;5051140;28;20479;-56
2022/11/10 03:56:14;;;;;;;30.77;16.92;;;9.00;79.40;;;;;;5055453;28;20060;-57
2022/11/10 03:58:40;;;;;;;32.70;17.65;;;9.00;79.50;;;;;;5056441;28;20020;-56
2022/11/10 04:01:06;;;;;;;24.50;14.43;;;9.00;79.60;;;;;;5050075;28;20024;-56
2022/11/10 04:03:32;;;;;;;18.98;11.73;;;8.90;79.50;;;;;;5054275;28;20479;-57
2022/11/10 04:09:00;;;;;;;15.85;10.77;;;9.00;79.50;;;;;;5053570;28;20556;-56
2022/11/10 04:16:58;;;;;;;11.00;8.18;;;9.00;79.60;;;;;;5054057;28;20135;-56
2022/11/10 04:19:25;;;;;;;12.60;7.82;;;9.00;79.50;;;;;;5050524;28;20025;-55
2022/11/10 04:21:50;;;;;;;12.45;8.55;;;9.00;79.40;;;;;;5059826;28;20554;-57
2022/11/10 04:24:16;;;;;;;12.05;7.90;;;9.10;79.40;;;;;;5067322;28;20162;-57
2022/11/10 04:26:43;;;;;;;13.52;8.35;;;9.10;79.50;;;;;;5052169;28;20306;-56
2022/11/10 04:29:10;;;;;;;11.43;7.65;;;9.10;79.30;;;;;;5059440;28;20042;-55
2022/11/10 04:31:38;;;;;;;11.70;8.15;;;9.10;79.20;;;;;;5060911;28;20036;-56
2022/11/10 04:34:14;;;;;;;13.10;7.95;;;9.10;79.30;;;;;;5052543;28;20048;-56
2022/11/10 04:36:41;;;;;;;11.73;7.50;;;9.10;79.10;;;;;;5053132;28;20474;-56
2022/11/10 04:39:08;;;;;;;9.38;7.07;;;9.20;79.10;;;;;;5055453;28;20040;-55
2022/11/10 04:41:34;;;;;;;11.82;7.78;;;9.20;79.10;;;;;;5055473;28;20400;-56
2022/11/10 04:44:01;;;;;;;11.40;7.97;;;9.20;79.10;;;;;;5058957;28;20128;-55
2022/11/10 04:46:37;;;;;;;10.68;7.43;;;9.20;79.10;;;;;;5058492;28;20479;-55
2022/11/10 04:49:04;;;;;;;10.75;7.80;;;9.20;79.00;;;;;;5053919;28;20017;-56
2022/11/10 04:51:32;;;;;;;10.80;6.72;;;9.20;79.00;;;;;;5051594;28;20035;-55
2022/11/10 04:53:58;;;;;;;9.55;6.88;;;9.20;79.00;;;;;;5063494;28;20032;-55
2022/11/10 04:56:25;;;;;;;12.48;7.75;;;9.20;78.90;;;;;;5061831;28;20025;-56
2022/11/10 04:58:53;;;;;;;12.05;7.97;;;9.20;78.80;;;;;;5056547;28;20034;-55
2022/11/10 05:01:21;;;;;;;11.38;7.00;;;9.10;78.70;;;;;;5050448;28;20546;-56
2022/11/10 05:03:48;;;;;;;10.85;7.10;;;9.10;79.40;;;;;;5064385;28;20036;-57
2022/11/10 05:06:13;;;;;;;13.95;9.60;;;9.10;78.80;;;;;;5058286;28;20037;-56
2022/11/10 05:08:40;;;;;;;16.25;9.77;;;9.10;78.90;;;;;;5055364;28;20048;-56
2022/11/10 05:11:06;;;;;;;16.70;10.68;;;9.10;78.90;;;;;;5060419;28;20093;-56
2022/11/10 05:13:32;;;;;;;16.52;10.45;;;9.10;78.80;;;;;;5057890;28;20081;-56
2022/11/10 05:15:58;;;;;;;15.38;9.32;;;9.20;78.70;;;;;;5056551;28;20040;-57
2022/11/10 05:18:24;;;;;;;16.65;11.05;;;9.20;78.80;;;;;;5053350;28;20029;-55
2022/11/10 05:20:52;;;;;;;15.55;10.40;;;9.20;78.60;;;;;;5059789;28;20063;-56
2022/11/10 05:23:36;;;;;;;13.98;9.07;;;9.20;78.70;;;;;;5057672;28;20033;-56
2022/11/10 05:26:06;;;;;;;13.02;8.88;;;9.20;78.60;;;;;;5043010;28;20487;-56
2022/11/10 05:28:33;;;;;;;13.10;8.95;;;9.20;78.50;;;;;;5047725;28;20025;-57
2022/11/10 05:30:58;;;;;;;13.60;9.32;;;9.20;78.40;;;;;;5036365;28;20039;-57
2022/11/10 05:33:24;;;;;;;14.52;10.50;;;9.20;78.40;;;;;;5055623;28;20446;-56
2022/11/10 05:35:50;;;;;;;12.85;9.48;;;9.30;78.40;;;;;;5046829;28;20184;-56
2022/11/10 05:38:16;;;;;;;15.13;10.07;;;9.30;78.30;;;;;;5039837;28;20045;-57
2022/11/10 05:40:42;;;;;;;16.52;12.43;;;9.30;78.30;;;;;;5046277;28;20083;-57
2022/11/10 05:43:09;;;;;;;18.65;12.85;;;9.30;78.20;;;;;;5047100;28;20449;-56
2022/11/10 05:45:35;;;;;;;20.38;13.80;;;9.30;78.20;;;;;;5044233;28;20028;-57
2022/11/10 05:48:00;;;;;;;18.50;12.98;;;9.30;78.30;;;;;;5035695;28;20087;-56
2022/11/10 05:50:26;;;;;;;16.17;11.15;;;9.30;78.40;;;;;;5043682;28;20040;-56
2022/11/10 05:52:53;;;;;;;18.80;13.57;;;9.30;78.50;;;;;;5039841;28;20130;-56
2022/11/10 05:55:26;;;;;;;17.65;12.50;;;9.40;78.50;;;;;;5047006;28;20028;-57
2022/11/10 05:57:53;;;;;;;18.15;12.52;;;9.40;78.50;;;;;;5045491;28;20545;-57
2022/11/10 06:00:24;;;;;;;16.83;11.20;;;9.50;78.50;;;;;;5042119;28;20121;-56
2022/11/10 06:02:57;;;;;;;;;;;9.50;78.50;;;;;;5044150;28;20446;-57
2022/11/10 06:05:23;;;;;;;16.38;10.82;;;9.50;78.40;;;;;;5050196;28;19929;-56
2022/11/10 06:07:48;;;;;;;14.60;9.80;;;9.50;78.30;;;;;;5051779;28;20032;-56
2022/11/10 06:10:15;;;;;;;15.27;9.38;;;9.50;78.40;;;;;;5049203;28;20391;-56
2022/11/10 06:12:40;;;;;;;14.52;9.95;;;9.60;78.40;;;;;;5054049;28;20016;-56
2022/11/10 06:15:07;;;;;;;13.20;9.48;;;9.60;78.50;;;;;;5048692;28;20021;-56
2022/11/10 06:17:35;;;;;;;14.77;9.13;;;9.60;78.40;;;;;;5045069;28;20036;-56
2022/11/10 06:20:02;;;;;;;12.48;8.55;;;9.70;78.50;;;;;;5044137;28;20037;-57
2022/11/10 06:22:27;;;;;;;13.60;8.45;;;9.70;78.60;;;;;;5043017;28;20036;-57
2022/11/10 06:24:53;;;;;;;14.90;9.90;;;9.70;78.60;;;;;;5038116;28;20566;-57
2022/11/10 06:27:19;;;;;;;13.77;9.07;;;9.80;78.60;;;;;;5050130;28;20059;-57
2022/11/10 06:29:44;;;;;;;16.15;10.13;;;9.80;78.40;;;;;;5043725;28;20060;-57
2022/11/10 06:32:10;;;;;;;19.08;10.63;;;9.80;78.40;;;;;;5046191;28;20531;-56
2022/11/10 06:34:36;;;;;;;16.67;10.23;;;9.80;78.50;;;;;;5053127;28;20023;-55
2022/11/10 06:37:02;;;;;;;25.80;14.32;;;9.80;78.60;;;;;;5043033;28;20499;-57
2022/11/10 06:39:27;;;;;;;28.75;15.18;;;9.90;78.70;;;;;;5048653;28;20527;-57
2022/11/10 06:41:53;;;;;;;33.05;18.40;;;10.00;78.80;;;;;;5038716;28;20036;-57
2022/11/10 06:44:18;;;;;;;32.72;18.60;;;10.00;78.60;;;;;;5049491;28;20072;-57
2022/11/10 06:46:44;;;;;;;30.30;17.52;;;10.10;78.70;;;;;;5043407;28;20559;-57
2022/11/10 06:49:10;;;;;;;35.70;18.92;;;10.20;78.70;;;;;;5047304;28;20036;-58
2022/11/10 06:51:35;;;;;;;31.50;17.17;;;10.20;78.80;;;;;;5039564;28;21008;-56
2022/11/10 06:54:01;;;;;;;25.33;15.57;;;10.30;78.70;;;;;;5034444;28;20033;-57
2022/11/10 06:56:26;;;;;;;29.70;15.82;;;10.40;78.70;;;;;;5038140;28;20048;-57
2022/11/10 06:58:52;;;;;;;30.83;16.77;;;10.50;78.60;;;;;;5038326;28;20384;-56
2022/11/10 07:01:20;;;;;;;29.17;16.77;;;10.60;78.50;;;;;;5040626;28;20025;-57
2022/11/10 07:03:45;;;;;;;26.05;14.98;;;10.70;78.30;;;;;;5033253;28;20040;-56
2022/11/10 07:06:11;;;;;;;24.83;14.45;;;10.70;78.00;;;;;;5026719;28;20041;-57
2022/11/10 07:08:37;;;;;;;26.15;15.63;;;10.80;77.90;;;;;;5014114;28;20567;-57
2022/11/10 07:11:02;;;;;;;24.02;14.35;;;10.90;77.60;;;;;;5030889;28;20028;-57
2022/11/10 07:13:28;;;;;;;25.65;14.68;;;10.90;77.60;;;;;;5029456;28;20506;-57
2022/11/10 07:15:53;;;;;;;18.45;12.02;;;10.90;77.50;;;;;;5032551;28;20068;-57
2022/11/10 07:18:19;;;;;;;24.27;12.40;;;10.90;77.50;;;;;;5040842;28;20492;-57
2022/11/10 07:20:45;;;;;;;21.73;11.98;;;11.00;77.40;;;;;;5033577;28;21307;-58
2022/11/10 07:23:11;;;;;;;21.80;12.52;;;11.00;77.40;;;;;;5038682;28;20455;-57
2022/11/10 07:25:37;;;;;;;24.80;12.98;;;11.10;77.60;;;;;;5032111;28;20036;-56
2022/11/10 07:28:05;;;;;;;21.20;12.75;;;11.10;77.20;;;;;;5037172;28;20116;-58
2022/11/10 07:30:32;;;;;;;22.33;12.25;;;11.20;77.10;;;;;;5030337;28;20033;-56
2022/11/10 07:33:01;;;;;;;22.70;12.52;;;11.20;77.00;;;;;;5043037;28;20040;-57
2022/11/10 07:35:28;;;;;;;19.48;11.23;;;11.20;76.90;;;;;;5040867;28;20021;-58
2022/11/10 07:37:55;;;;;;;18.38;11.18;;;11.30;77.00;;;;;;5042008;28;20075;-56
2022/11/10 07:40:21;;;;;;;21.05;12.00;;;11.30;76.80;;;;;;5037141;28;20025;-56
2022/11/10 07:42:47;;;;;;;18.23;11.27;;;11.30;76.60;;;;;;5036136;28;20063;-57
2022/11/10 07:45:13;;;;;;;16.95;11.50;;;11.30;76.60;;;;;;5035455;28;20038;-57
2022/11/10 07:47:38;;;;;;;21.88;12.10;;;11.30;76.60;;;;;;5038850;28;20036;-57
2022/11/10 07:50:04;;;;;;;18.45;11.48;;;11.40;76.60;;;;;;5038881;28;20064;-57
2022/11/10 07:52:30;;;;;;;17.08;10.60;;;11.40;76.50;;;;;;5032527;28;20035;-57
2022/11/10 07:54:56;;;;;;;13.85;9.25;;;11.40;76.70;;;;;;5037139;28;20025;-57
2022/11/10 07:57:21;;;;;;;15.63;9.00;;;11.40;76.70;;;;;;5037007;28;20039;-58
2022/11/10 07:59:47;;;;;;;13.38;9.70;;;11.40;76.70;;;;;;5034262;28;20033;-57
2022/11/10 08:02:13;;;;;;;15.98;10.85;;;11.50;76.60;;;;;;5035641;28;20039;-56
2022/11/10 08:04:38;;;;;;;14.23;10.85;;;11.50;76.60;;;;;;5031914;28;20033;-57
2022/11/10 08:07:04;;;;;;;17.38;12.57;;;11.50;76.70;;;;;;5036942;28;20123;-58
2022/11/10 08:09:29;;;;;;;16.00;11.25;;;11.40;76.80;;;;;;5029872;28;20676;-57
2022/11/10 08:11:55;;;;;;;16.73;11.32;;;11.40;76.90;;;;;;5036694;28;20037;-56
2022/11/10 08:14:21;;;;;;;14.82;9.75;;;11.40;77.00;;;;;;5040190;28;20391;-57
2022/11/10 08:16:47;;;;;;;15.95;10.68;;;11.40;77.20;;;;;;5034940;28;20472;-57
2022/11/10 08:19:14;;;;;;;13.52;9.35;;;11.50;77.20;;;;;;5022444;28;20040;-56
2022/11/10 08:21:40;;;;;;;13.20;8.80;;;11.50;77.20;;;;;;5032804;28;20542;-58
2022/11/10 08:24:05;;;;;;;15.02;8.70;;;11.60;77.10;;;;;;5032148;28;20033;-59
2022/11/10 08:26:31;;;;;;;11.73;8.23;;;11.70;77.10;;;;;;5031486;28;20114;-56
2022/11/10 08:28:57;;;;;;;12.57;8.32;;;11.70;76.90;;;;;;5027814;28;20037;-57
2022/11/10 08:31:23;;;;;;;12.63;8.20;;;11.80;76.80;;;;;;5034320;28;20036;-58
2022/11/10 08:33:49;;;;;;;12.70;8.55;;;11.80;76.70;;;;;;5030052;28;20443;-58
2022/11/10 08:36:14;;;;;;;12.27;8.23;;;11.90;76.30;;;;;;5029451;28;20470;-58
2022/11/10 08:38:40;;;;;;;14.93;9.52;;;11.90;76.10;;;;;;5030323;28;20036;-56
2022/11/10 08:41:06;;;;;;;13.23;8.98;;;11.90;76.00;;;;;;5031895;28;20025;-57
2022/11/10 08:43:31;;;;;;;13.80;8.90;;;11.90;76.00;;;;;;5037466;28;20037;-58
2022/11/10 08:45:57;;;;;;;10.68;7.30;;;11.90;75.90;;;;;;5036191;28;20032;-57
2022/11/10 08:48:23;;;;;;;13.45;8.23;;;12.00;75.70;;;;;;5029422;28;20024;-57
2022/11/10 08:50:50;;;;;;;13.18;7.88;;;12.00;75.70;;;;;;5029347;28;21159;-58
2022/11/10 08:53:22;;;;;;;14.27;9.05;;;12.00;75.80;;;;;;5032839;28;20040;-56
2022/11/10 08:55:48;;;;;;;13.40;8.85;;;12.00;75.70;;;;;;5033286;28;21456;-58
2022/11/10 08:58:20;;;;;;;15.43;9.57;;;12.00;75.40;;;;;;5029117;28;20047;-58
2022/11/10 09:00:46;;;;;;;14.25;9.05;;;12.00;75.40;;;;;;5013951;28;20029;-57
2022/11/10 09:03:14;;;;;;;16.88;9.85;;;12.00;75.50;;;;;;5028323;28;21194;-58
2022/11/10 09:05:40;;;;;;;15.10;9.40;;;12.00;75.50;;;;;;5023180;28;20056;-58
2022/11/10 09:08:06;;;;;;;14.85;9.02;;;12.10;75.40;;;;;;5021467;28;21484;-58
2022/11/10 09:10:34;;;;;;;18.38;10.65;;;12.00;75.40;;;;;;5026337;28;20029;-57
2022/11/10 09:13:00;;;;;;;13.07;9.35;;;12.10;75.30;;;;;;5028238;28;20029;-56
2022/11/10 09:15:27;;;;;;;14.10;9.38;;;12.10;76.00;;;;;;5030375;28;20060;-57
2022/11/10 09:17:52;;;;;;;13.25;8.40;;;12.10;75.40;;;;;;5033077;28;20033;-58
2022/11/10 09:20:18;;;;;;;15.75;9.68;;;12.20;75.40;;;;;;5031009;28;20028;-57
2022/11/10 09:22:44;;;;;;;16.30;10.35;;;12.20;75.40;;;;;;5022155;28;20059;-57
2022/11/10 09:25:11;;;;;;;17.77;10.60;;;12.30;75.40;;;;;;5019772;28;20045;-56
2022/11/10 09:27:37;;;;;;;15.57;10.18;;;12.30;75.40;;;;;;5030182;28;20048;-56
2022/11/10 09:30:07;;;;;;;15.52;10.13;;;12.30;75.30;;;;;;5025754;28;20021;-58
2022/11/10 09:32:33;;;;;;;16.33;10.18;;;12.40;75.40;;;;;;5015344;28;20043;-57
2022/11/10 09:34:59;;;;;;;16.08;10.30;;;12.40;75.30;;;;;;5015962;28;20114;-58
2022/11/10 09:37:25;;;;;;;13.88;9.00;;;12.40;75.00;;;;;;5013773;28;20490;-58
2022/11/10 09:39:51;;;;;;;13.73;9.27;;;12.50;75.00;;;;;;5013597;28;20040;-58
2022/11/10 09:42:31;;;;;;;11.20;7.18;;;12.50;75.00;;;;;;5015762;28;20033;-58
2022/11/10 09:45:34;;;;;;;12.95;7.40;;;12.50;74.70;;;;;;5032123;28;20033;-57
2022/11/10 09:48:15;;;;;;;13.13;7.85;;;12.60;74.90;;;;;;5022964;28;20053;-57
2022/11/10 09:50:51;;;;;;;13.45;8.80;;;12.60;74.60;;;;;;5021275;28;20033;-58
2022/11/10 09:53:23;;;;;;;12.80;8.32;;;12.60;74.80;;;;;;5023790;28;20123;-58
2022/11/10 09:55:53;;;;;;;10.80;7.18;;;12.70;74.70;;;;;;5020150;28;20060;-57
2022/11/10 09:58:24;;;;;;;13.93;8.55;;;12.70;74.60;;;;;;5014634;28;20033;-58
2022/11/10 10:01:08;;;;;;;12.63;7.97;;;12.70;74.30;;;;;;5015269;28;20570;-58
2022/11/10 10:03:36;;;;;;;13.80;9.15;;;12.70;74.20;;;;;;5030303;28;20035;-58
2022/11/10 10:06:13;;;;;;;12.63;8.55;;;12.80;74.20;;;;;;5020980;28;20045;-58
2022/11/10 10:08:57;;;;;;;14.93;9.27;;;12.70;74.00;;;;;;5018312;28;20054;-58
2022/11/10 10:11:38;;;;;;;15.05;8.95;;;12.80;74.00;;;;;;5016261;28;20121;-58
2022/11/10 10:14:28;;;;;;;14.25;8.73;;;12.80;74.00;;;;;;5018694;28;20540;-57
2022/11/10 10:17:06;;;;;;;11.52;8.02;;;12.80;73.90;;;;;;5031025;28;21280;-58
2022/11/10 10:19:57;;;;;;;13.00;7.88;;;12.80;74.00;;;;;;5019638;28;20083;-56
2022/11/10 10:23:04;;;;;;;13.60;8.38;;;12.80;73.90;;;;;;5017729;28;20156;-57
2022/11/10 10:25:31;;;;;;;15.93;9.48;;;12.80;74.00;;;;;;5045713;28;20033;-57
2022/11/10 10:28:26;;;;;;;15.60;9.07;;;12.90;74.00;;;;;;5016766;28;20037;-56
2022/11/10 10:30:53;;;;;;;15.57;9.73;;;12.90;73.90;;;;;;5017503;28;20034;-57
2022/11/10 10:33:20;;;;;;;16.67;10.27;;;12.90;74.00;;;;;;5021733;28;21264;-58
2022/11/10 10:35:48;;;;;;;13.90;9.30;;;13.00;74.20;;;;;;5010432;28;20026;-58
2022/11/10 10:38:44;;;;;;;15.60;9.23;;;13.00;74.00;;;;;;5019013;28;20544;-58
2022/11/10 10:41:21;;;;;;;16.55;10.32;;;13.00;74.00;;;;;;4994907;28;20114;-57
2022/11/10 10:43:49;;;;;;;19.20;11.30;;;13.10;73.90;;;;;;5019813;28;20057;-58
2022/11/10 10:46:15;;;;;;;16.90;10.25;;;13.10;73.80;;;;;;5025750;28;20048;-57
2022/11/10 10:48:41;;;;;;;17.38;10.18;;;13.10;73.80;;;;;;5011008;28;20033;-58
2022/11/10 10:51:07;;;;;;;16.13;10.73;;;13.20;73.70;;;;;;5011240;28;20056;-58
2022/11/10 10:53:45;;;;;;;18.95;10.77;;;13.20;73.60;;;;;;5021716;28;20029;-58
2022/11/10 10:56:21;;;;;;;15.25;9.30;;;13.20;73.60;;;;;;5016827;28;20029;-58
2022/11/10 10:58:56;;;;;;;12.82;8.27;;;13.30;73.90;;;;;;5009480;28;20030;-58
2022/11/10 11:01:29;;;;;;;11.23;7.15;;;13.20;73.50;;;;;;5020305;28;20035;-58
2022/11/10 11:03:55;;;;;;;10.80;7.20;;;13.20;73.60;;;;;;5021492;28;20033;-57
2022/11/10 11:06:25;;;;;;;12.43;7.30;;;13.20;73.80;;;;;;5021995;28;20132;-57
2022/11/10 11:09:13;;;;;;;10.73;7.20;;;13.10;74.00;;;;;;5022599;28;20034;-57
2022/11/10 11:11:41;;;;;;;10.45;7.28;;;13.10;74.10;;;;;;5026987;28;20025;-57
2022/11/10 11:14:20;;;;;;;10.35;6.45;;;13.10;74.30;;;;;;5025385;28;20140;-56
2022/11/10 11:16:49;;;;;;;10.07;6.72;;;13.10;74.30;;;;;;5021799;28;20033;-58
2022/11/10 11:19:17;;;;;;;11.93;7.60;;;13.10;74.50;;;;;;5026618;28;20025;-57
2022/11/10 11:21:54;;;;;;;13.35;7.80;;;13.20;74.50;;;;;;5024755;28;20074;-58
2022/11/10 11:24:42;;;;;;;8.65;6.57;;;13.20;74.50;;;;;;5021068;28;20056;-58
2022/11/10 11:27:10;;;;;;;12.73;8.60;;;13.10;74.40;;;;;;5030209;28;20219;-57
2022/11/10 11:30:01;;;;;;;11.52;7.35;;;13.10;74.40;;;;;;5007899;28;20715;-58
2022/11/10 11:32:44;;;;;;;10.27;7.07;;;13.10;74.20;;;;;;5017828;28;20067;-58
2022/11/10 11:35:23;;;;;;;12.68;7.20;;;13.00;74.10;;;;;;5027400;28;20033;-58
2022/11/10 11:38:07;;;;;;;13.48;7.95;;;12.90;74.20;;;;;;5018936;28;20461;-57
2022/11/10 11:40:51;;;;;;;11.23;7.35;;;12.90;74.30;;;;;;5014794;28;20058;-57
2022/11/10 11:43:37;;;;;;;12.38;8.05;;;12.70;74.50;;;;;;5022319;28;20028;-58
2022/11/10 11:46:35;;;;;;;14.43;8.25;;;12.60;74.80;;;;;;5026839;28;20029;-58
2022/11/10 11:49:19;;;;;;;15.13;9.18;;;12.50;75.10;;;;;;5016224;28;20102;-58
2022/11/10 11:52:00;;;;;;;13.88;8.50;;;12.30;75.10;;;;;;5021663;28;20033;-58
2022/11/10 11:54:31;;;;;;;14.90;9.25;;;12.20;75.40;;;;;;5029887;28;20061;-58
2022/11/10 11:57:23;;;;;;;13.60;8.80;;;12.10;75.80;;;;;;5020736;28;20029;-57
2022/11/10 11:59:55;;;;;;;;;;;12.00;76.10;;;;;;5021962;28;20158;-58
2022/11/10 12:02:45;;;;;;;14.82;9.20;;;11.90;76.40;;;;;;5027097;28;19924;-58
2022/11/10 12:05:24;;;;;;;12.20;8.50;;;11.90;76.50;;;;;;5009657;28;20148;-58
2022/11/10 12:08:11;;;;;;;17.58;10.57;;;11.80;76.70;;;;;;5028889;28;20033;-58
2022/11/10 12:10:39;;;;;;;13.30;9.07;;;11.90;76.90;;;;;;5017466;28;20021;-58
2022/11/10 12:13:47;;;;;;;18.23;10.35;;;11.70;76.90;;;;;;5022720;28;20040;-58
2022/11/10 12:16:15;;;;;;;13.18;9.05;;;11.70;77.10;;;;;;4971564;28;21759;-57
2022/11/10 12:18:54;;;;;;;14.02;9.45;;;11.60;77.30;;;;;;5013339;28;20041;-57
2022/11/10 12:21:23;;;;;;;12.57;8.20;;;11.50;77.60;;;;;;5032229;28;20548;-58
2022/11/10 12:24:15;;;;;;;13.25;9.13;;;11.50;77.90;;;;;;5021107;28;20417;-61
2022/11/10 12:26:57;;;;;;;14.63;8.50;;;11.50;78.10;;;;;;5025655;28;20136;-55
2022/11/10 12:29:33;;;;;;;13.18;8.70;;;11.40;78.30;;;;;;5027624;28;20036;-59
2022/11/10 12:32:08;;;;;;;14.68;9.32;;;11.40;78.40;;;;;;5023237;28;20025;-58
2022/11/10 12:34:37;;;;;;;13.73;9.48;;;11.40;78.60;;;;;;5020963;28;20040;-57
2022/11/10 12:37:06;;;;;;;13.10;8.57;;;11.40;78.90;;;;;;5023110;28;20041;-58
2022/11/10 12:39:49;;;;;;;13.25;8.90;;;11.40;79.00;;;;;;5016548;28;20036;-58
2022/11/10 12:42:21;;;;;;;12.40;8.63;;;11.30;79.00;;;;;;5029013;28;20887;-58
2022/11/10 12:44:58;;;;;;;13.02;7.82;;;11.30;79.20;;;;;;5025461;28;20033;-57
2022/11/10 12:47:29;;;;;;;11.50;7.68;;;11.40;79.50;;;;;;5026857;28;20055;-57
2022/11/10 12:50:25;;;;;;;10.32;7.85;;;11.40;79.60;;;;;;5019877;28;20555;-57
2022/11/10 12:52:55;;;;;;;10.65;7.18;;;11.30;79.40;;;;;;5023337;28;20028;-58
2022/11/10 12:55:44;;;;;;;11.18;7.53;;;11.40;79.80;;;;;;5028235;28;20404;-57
2022/11/10 12:58:12;;;;;;;11.77;6.78;;;11.40;79.60;;;;;;5031412;28;20017;-56
2022/11/10 13:00:44;;;;;;;12.70;7.88;;;11.40;79.80;;;;;;5022275;28;20037;-56